Weather at Tempuling Airport

Public forecast

Using degrees Celsius for public forecast. Weather courtesy of forecast.io.

Closest aviation weather report (METAR) to Tempuling Airport

Closest report is Sultan Syarif Kasim II International Airport / Roesmin Nurjadin AFB, 107.3 nm (198.7 km) WNW.

2024/05/24 08:00 (retrieved 25 minutes ago)

WIBB 240800Z 18006KT 9000 BKN014 31/26 Q1005 NOSIG

Closest aviation forecast (TAF) to Tempuling Airport

Closest forecast is Hang Nadim International Airport, 114.8 nm (212.7 km) NE.

2024/05/24 06:00 (retrieved 2 hours ago)

TAF WIDD 240500Z 2406/2506 16006KT 9000 SCT014 TEMPO 2406/2408 5000 RA